Time;durP1;ratioP1;P1;durP2;ratioP2;P2;SDS_P1;SDS_P2;PMS_P1;PMS_P2;Temp;Humidity;BMP_temperature;BMP_pressure;BME280_temperature;BME280_humidity;BME280_pressure;Samples;Min_cycle;Max_cycle;Signal;HPM_P1;HPM_P2
2023/09/05 00:00:44;;;;;;;8.85;5.40;;;;;;;16.55;100.00;102308.81;5001352;28;20046;-78
2023/09/05 00:03:12;;;;;;;4.73;4.23;;;;;;;16.54;100.00;102315.00;4995669;28;20050;-78
2023/09/05 00:05:39;;;;;;;6.57;5.05;;;;;;;16.55;100.00;102307.03;5025590;28;20072;-79
2023/09/05 00:08:06;;;;;;;7.35;4.43;;;;;;;16.61;100.00;102306.16;5029896;28;20418;-78
2023/09/05 00:10:34;;;;;;;6.60;4.65;;;;;;;16.64;100.00;102311.47;5016669;28;20118;-78
2023/09/05 00:13:05;;;;;;;6.78;4.18;;;;;;;16.64;100.00;102316.81;5034293;28;20041;-79
2023/09/05 00:15:33;;;;;;;8.27;4.80;;;;;;;16.61;100.00;102307.94;5024947;28;20052;-79
2023/09/05 00:18:00;;;;;;;7.55;4.85;;;;;;;16.59;100.00;102307.91;4975945;28;20050;-78
2023/09/05 00:20:27;;;;;;;5.38;4.88;;;;;;;16.57;100.00;102301.72;5025379;28;20046;-78
2023/09/05 00:22:56;;;;;;;6.80;4.63;;;;;;;16.53;100.00;102302.59;5027938;28;20064;-79
2023/09/05 00:25:23;;;;;;;7.80;4.00;;;;;;;16.48;100.00;102305.25;5027590;28;20041;-78
2023/09/05 00:27:50;;;;;;;5.30;4.80;;;;;;;16.44;100.00;102303.47;5024443;28;20049;-78
2023/09/05 00:30:20;;;;;;;5.28;4.78;;;;;;;16.41;100.00;102305.22;5028015;28;20413;-79
2023/09/05 00:32:47;;;;;;;6.75;5.00;;;;;;;16.40;100.00;102296.34;4983320;28;20053;-79
2023/09/05 00:35:15;;;;;;;5.88;5.07;;;;;;;16.41;100.00;102294.56;5009225;28;20049;-79
2023/09/05 00:37:43;;;;;;;8.48;4.70;;;;;;;16.37;100.00;102297.25;5025780;28;20057;-79
2023/09/05 00:40:11;;;;;;;6.93;4.88;;;;;;;16.35;100.00;102291.03;5027698;28;20064;-78
2023/09/05 00:42:38;;;;;;;5.90;4.57;;;;;;;16.34;100.00;102293.69;4999856;28;21298;-78
2023/09/05 00:45:09;;;;;;;5.88;5.32;;;;;;;16.30;100.00;102282.16;5011109;28;20414;-78
2023/09/05 00:47:36;;;;;;;;;;;;;;;16.27;100.00;102290.13;4992901;28;20466;-78
2023/09/05 00:50:06;;;;;;;6.50;5.22;;;;;;;16.28;100.00;102283.94;5032179;28;19921;-78
2023/09/05 00:52:36;;;;;;;5.82;5.15;;;;;;;16.27;100.00;102278.59;5009484;28;20045;-78
2023/09/05 00:55:10;;;;;;;9.23;6.67;;;;;;;16.27;100.00;102282.13;5044413;28;20041;-79
2023/09/05 00:57:39;;;;;;;7.00;5.70;;;;;;;16.28;100.00;102285.72;5016646;28;20313;-79
2023/09/05 01:00:09;;;;;;;5.45;4.90;;;;;;;16.27;100.00;102281.25;5023716;28;20049;-80
2023/09/05 01:02:36;;;;;;;6.40;5.73;;;;;;;16.23;100.00;102276.81;5025052;28;20041;-78
2023/09/05 01:05:06;;;;;;;6.95;6.15;;;;;;;16.22;100.00;102278.59;4982229;28;20056;-80
2023/09/05 01:08:00;;;;;;;6.53;5.53;;;;;;;16.18;100.00;102280.38;5040850;28;20057;-78
2023/09/05 01:10:42;;;;;;;5.20;4.70;;;;;;;16.12;100.00;102282.09;5021961;28;20054;-79
2023/09/05 01:13:10;;;;;;;6.22;5.32;;;;;;;16.04;100.00;102275.88;5028054;28;20056;-79
2023/09/05 01:15:37;;;;;;;5.30;4.80;;;;;;;15.96;100.00;102271.41;5032055;28;20037;-78
2023/09/05 01:18:05;;;;;;;6.60;5.18;;;;;;;15.90;100.00;102271.41;5024399;28;20064;-79
2023/09/05 01:20:50;;;;;;;5.60;5.10;;;;;;;15.84;100.00;102265.16;4999245;28;20049;-79
2023/09/05 01:23:28;;;;;;;7.15;5.70;;;;;;;15.76;100.00;102266.03;5025895;28;20045;-78
2023/09/05 01:25:56;;;;;;;5.45;4.97;;;;;;;15.71;100.00;102266.88;5027923;28;20052;-78
2023/09/05 01:28:25;;;;;;;6.10;5.60;;;;;;;15.65;100.00;102259.75;5018734;28;20052;-77
2023/09/05 01:30:53;;;;;;;6.90;6.10;;;;;;;15.60;100.00;102262.38;5021810;28;20061;-79
2023/09/05 01:33:20;;;;;;;7.82;6.35;;;;;;;15.57;100.00;102266.78;5013105;28;20045;-78
2023/09/05 01:35:48;;;;;;;6.97;6.28;;;;;;;15.57;100.00;102266.78;5001481;28;20033;-79
2023/09/05 01:38:15;;;;;;;6.88;6.07;;;;;;;15.63;100.00;102257.97;5027627;28;20037;-80
2023/09/05 01:40:42;;;;;;;10.70;7.13;;;;;;;15.67;100.00;102259.75;5024105;28;20042;-79
2023/09/05 01:43:10;;;;;;;7.35;6.00;;;;;;;15.69;100.00;102257.97;5027673;28;20050;-78
2023/09/05 01:45:37;;;;;;;9.05;5.63;;;;;;;15.69;100.00;102260.63;4997316;28;20038;-78
2023/09/05 01:48:05;;;;;;;7.63;5.82;;;;;;;15.63;100.00;102255.28;5025985;28;20053;-78
2023/09/05 01:50:33;;;;;;;7.32;6.32;;;;;;;15.58;100.00;102247.31;4974872;28;20053;-78
2023/09/05 01:53:01;;;;;;;6.18;5.57;;;;;;;15.56;100.00;102252.63;5027238;28;20038;-79
2023/09/05 01:55:28;;;;;;;6.95;6.22;;;;;;;15.53;100.00;102252.59;5024692;28;20045;-80
2023/09/05 01:57:55;;;;;;;6.93;5.68;;;;;;;15.49;100.00;102247.28;5026783;28;20054;-78
2023/09/05 02:00:23;;;;;;;6.72;5.40;;;;;;;15.47;100.00;102246.38;5012873;28;20067;-78
2023/09/05 02:02:50;;;;;;;8.07;6.45;;;;;;;15.44;100.00;102238.38;5026598;28;20054;-79
2023/09/05 02:05:18;;;;;;;6.78;6.00;;;;;;;15.45;100.00;102243.72;5016140;28;20045;-78
2023/09/05 02:07:45;;;;;;;7.00;6.30;;;;;;;15.45;100.00;102241.06;4990033;28;20061;-78
2023/09/05 02:10:12;;;;;;;6.25;5.75;;;;;;;15.45;100.00;102237.50;5025831;28;20058;-78
2023/09/05 02:12:44;;;;;;;6.35;5.75;;;;;;;15.42;100.00;102238.38;5041900;28;20046;-78
2023/09/05 02:15:11;;;;;;;6.72;6.05;;;;;;;15.40;100.00;102241.00;5021098;28;20041;-78
2023/09/05 02:17:39;;;;;;;7.65;6.90;;;;;;;15.40;100.00;102240.13;5027138;28;20045;-79
2023/09/05 02:20:07;;;;;;;6.40;5.85;;;;;;;15.38;100.00;102231.25;5030724;28;20041;-79
2023/09/05 02:22:34;;;;;;;6.95;6.35;;;;;;;15.38;100.00;102226.84;4990557;28;20064;-78
2023/09/05 02:25:02;;;;;;;11.52;7.38;;;;;;;15.43;100.00;102234.84;5057480;28;20048;-80
2023/09/05 02:27:30;;;;;;;8.30;7.50;;;;;;;15.47;100.00;102231.31;5027670;28;20049;-79
2023/09/05 02:30:01;;;;;;;10.13;8.48;;;;;;;15.51;100.00;102230.44;5029805;28;20068;-79
2023/09/05 02:32:31;;;;;;;10.40;7.85;;;;;;;15.55;100.00;102228.69;5005233;28;20049;-78
2023/09/05 02:34:59;;;;;;;15.43;9.95;;;;;;;15.55;100.00;102229.56;5011140;28;20049;-79
2023/09/05 02:37:26;;;;;;;17.75;10.82;;;;;;;15.57;100.00;102233.13;4994729;28;20046;-79
2023/09/05 02:39:53;;;;;;;14.63;12.43;;;;;;;15.58;100.00;102226.94;5012056;28;20049;-78
2023/09/05 02:42:21;;;;;;;19.52;15.85;;;;;;;15.59;100.00;102234.03;5025077;28;20049;-78
2023/09/05 02:44:51;;;;;;;17.13;15.32;;;;;;;15.59;100.00;102223.41;5025608;28;20045;-78
2023/09/05 02:47:20;;;;;;;23.25;18.45;;;;;;;15.60;100.00;102222.53;5030749;28;20056;-78
2023/09/05 02:49:47;;;;;;;24.92;19.58;;;;;;;15.63;100.00;102215.44;5028225;28;20056;-78
2023/09/05 02:52:15;;;;;;;19.45;15.43;;;;;;;15.65;100.00;102219.00;5009505;28;20038;-78
2023/09/05 02:54:42;;;;;;;17.20;14.63;;;;;;;15.67;100.00;102222.53;5017939;28;20699;-78
2023/09/05 02:57:10;;;;;;;15.73;13.10;;;;;;;15.68;100.00;102224.31;5014094;28;20445;-79
2023/09/05 02:59:38;;;;;;;16.02;12.35;;;;;;;15.67;100.00;102234.06;5028526;28;20452;-78
2023/09/05 03:02:05;;;;;;;16.00;12.18;;;;;;;15.67;100.00;102227.84;5004504;28;20054;-78
2023/09/05 03:04:33;;;;;;;12.32;10.90;;;;;;;15.66;100.00;102226.97;5027134;28;20045;-78
2023/09/05 03:07:03;;;;;;;13.25;9.90;;;;;;;15.67;100.00;102217.22;5013688;28;20053;-79
2023/09/05 03:09:33;;;;;;;;;;;;;;;15.65;100.00;102219.91;4975876;28;20053;-78
2023/09/05 03:12:00;;;;;;;16.98;10.75;;;;;;;15.65;100.00;102219.91;5033547;28;19921;-78
2023/09/05 03:14:30;;;;;;;16.48;10.02;;;;;;;15.64;100.00;102219.88;5027094;28;20057;-80
2023/09/05 03:16:57;;;;;;;12.88;10.93;;;;;;;15.60;100.00;102214.53;5030093;28;20076;-79
2023/09/05 03:19:25;;;;;;;12.15;9.65;;;;;;;15.59;100.00;102214.53;5019257;28;20080;-78
2023/09/05 03:21:52;;;;;;;12.40;9.35;;;;;;;15.57;100.00;102217.19;5029491;28;20064;-77
2023/09/05 03:24:21;;;;;;;12.52;9.40;;;;;;;15.55;100.00;102205.66;4994024;28;20060;-79
2023/09/05 03:26:48;;;;;;;15.90;9.10;;;;;;;15.56;100.00;102202.13;5012610;28;20068;-78
2023/09/05 03:29:16;;;;;;;14.43;9.27;;;;;;;15.54;100.00;102208.34;5030897;28;20405;-80
2023/09/05 03:31:43;;;;;;;12.63;8.45;;;;;;;15.53;100.00;102209.22;5026862;28;20037;-79
2023/09/05 03:34:15;;;;;;;9.63;8.68;;;;;;;15.51;100.00;102201.22;5019641;28;20049;-78
2023/09/05 03:36:42;;;;;;;10.40;8.20;;;;;;;15.49;100.00;102203.00;5026336;28;20053;-78
2023/09/05 03:39:09;;;;;;;12.73;10.70;;;;;;;15.48;100.00;102195.00;4990146;28;20045;-79
2023/09/05 03:41:36;;;;;;;9.75;8.20;;;;;;;15.46;100.00;102199.44;5001546;28;20438;-79
2023/09/05 03:44:04;;;;;;;9.43;7.82;;;;;;;15.44;100.00;102199.41;5028550;28;20045;-79
2023/09/05 03:46:32;;;;;;;9.40;8.38;;;;;;;15.42;100.00;102195.88;5010068;28;20109;-78
2023/09/05 03:49:00;;;;;;;8.82;7.82;;;;;;;15.39;100.00;102190.56;5017461;28;20049;-79
2023/09/05 03:51:29;;;;;;;9.35;8.45;;;;;;;15.37;100.00;102182.56;5026339;28;20045;-78
2023/09/05 03:53:58;;;;;;;8.55;7.60;;;;;;;15.35;100.00;102192.31;4984516;28;20060;-79
2023/09/05 03:56:27;;;;;;;8.60;7.72;;;;;;;15.34;100.00;102189.63;5025849;28;20058;-79
2023/09/05 03:58:55;;;;;;;9.30;8.23;;;;;;;15.30;100.00;102186.06;5024380;28;20383;-79
2023/09/05 04:01:22;;;;;;;11.15;9.00;;;;;;;15.29;100.00;102194.03;5018849;28;20053;-79
2023/09/05 04:03:50;;;;;;;9.93;8.07;;;;;;;15.25;100.00;102193.13;5026342;28;20050;-79
2023/09/05 04:06:17;;;;;;;11.77;8.10;;;;;;;15.23;100.00;102196.66;4997295;28;20041;-79
2023/09/05 04:08:45;;;;;;;9.75;8.63;;;;;;;15.21;100.00;102202.84;4984841;28;20050;-78
2023/09/05 04:11:12;;;;;;;10.40;7.70;;;;;;;15.20;100.00;102195.78;5027207;28;20056;-79
2023/09/05 04:13:40;;;;;;;9.18;8.10;;;;;;;15.19;100.00;102199.28;5007536;28;20045;-78
2023/09/05 04:16:07;;;;;;;9.18;7.57;;;;;;;15.18;100.00;102194.88;5023338;28;20034;-79
2023/09/05 04:18:35;;;;;;;10.75;7.93;;;;;;;15.17;100.00;102194.88;5035648;28;20048;-79
2023/09/05 04:21:02;;;;;;;9.30;8.25;;;;;;;15.14;100.00;102190.44;4997173;28;20422;-78
2023/09/05 04:23:30;;;;;;;13.93;8.10;;;;;;;15.11;100.00;102187.75;5008178;28;20068;-79
2023/09/05 04:25:59;;;;;;;10.32;8.57;;;;;;;15.07;100.00;102193.94;4995588;28;20056;-79
2023/09/05 04:28:29;;;;;;;9.05;7.95;;;;;;;15.05;100.00;102200.09;5013808;28;20410;-80
2023/09/05 04:31:02;;;;;;;12.50;9.70;;;;;;;15.03;100.00;102197.44;5025931;28;20774;-79
2023/09/05 04:33:36;;;;;;;10.05;9.05;;;;;;;15.01;100.00;102199.22;5008950;28;20054;-78
2023/09/05 04:36:09;;;;;;;8.80;7.93;;;;;;;14.99;100.00;102199.19;5015828;28;20080;-78
2023/09/05 04:38:37;;;;;;;14.25;8.85;;;;;;;14.98;100.00;102204.47;5010903;28;20056;-78
2023/09/05 04:41:07;;;;;;;14.55;9.57;;;;;;;14.95;100.00;102207.09;5006534;28;20046;-79
2023/09/05 04:43:35;;;;;;;10.47;9.47;;;;;;;14.94;100.00;102202.69;4991176;28;20042;-79
2023/09/05 04:46:09;;;;;;;11.07;8.00;;;;;;;14.90;100.00;102206.22;5022722;28;20053;-79
2023/09/05 04:48:37;;;;;;;9.82;8.85;;;;;;;14.87;100.00;102207.06;5024202;28;20049;-79
2023/09/05 04:51:04;;;;;;;18.10;8.75;;;;;;;14.85;100.00;102205.28;5016649;28;20403;-80
2023/09/05 04:53:32;;;;;;;9.85;8.85;;;;;;;14.84;100.00;102201.75;5011658;28;20059;-78
2023/09/05 04:56:00;;;;;;;11.10;8.88;;;;;;;14.79;100.00;102196.38;5044260;28;20045;-78
2023/09/05 04:58:29;;;;;;;11.63;8.30;;;;;;;14.76;100.00;102201.69;4967871;28;20522;-78
2023/09/05 05:01:02;;;;;;;12.68;8.48;;;;;;;14.74;100.00;102195.47;5028221;28;20414;-78
2023/09/05 05:03:34;;;;;;;9.60;8.60;;;;;;;14.72;100.00;102199.88;5019100;28;20053;-78
2023/09/05 05:06:02;;;;;;;10.57;8.98;;;;;;;14.71;100.00;102203.41;5028071;28;20049;-79
2023/09/05 05:08:30;;;;;;;12.23;10.48;;;;;;;14.69;100.00;102205.16;5007211;28;20156;-78
2023/09/05 05:10:58;;;;;;;10.80;9.00;;;;;;;14.68;100.00;102206.03;4997841;28;20045;-79
2023/09/05 05:13:25;;;;;;;11.07;8.55;;;;;;;14.68;100.00;102199.84;4974110;28;20056;-79
2023/09/05 05:15:53;;;;;;;10.50;9.40;;;;;;;14.69;100.00;102194.56;5012684;28;20057;-79
2023/09/05 05:18:20;;;;;;;10.73;9.27;;;;;;;14.69;100.00;102185.69;5004988;28;20057;-80
2023/09/05 05:20:48;;;;;;;11.88;10.15;;;;;;;14.71;100.00;102191.91;5022968;28;20045;-79
2023/09/05 05:23:15;;;;;;;12.30;10.55;;;;;;;14.73;100.00;102187.50;5010603;28;20048;-78
2023/09/05 05:25:46;;;;;;;12.75;9.48;;;;;;;14.77;100.00;102195.50;5023311;28;20777;-78
2023/09/05 05:28:13;;;;;;;12.18;9.50;;;;;;;14.80;100.00;102190.22;4983218;28;20060;-79
2023/09/05 05:30:41;;;;;;;12.55;10.10;;;;;;;14.84;100.00;102188.47;5005997;28;20049;-79
2023/09/05 05:33:08;;;;;;;13.80;9.27;;;;;;;14.87;100.00;102188.47;5026356;28;20832;-79
2023/09/05 05:35:37;;;;;;;13.95;10.00;;;;;;;14.91;100.00;102184.97;4993568;28;20054;-79
2023/09/05 05:38:07;;;;;;;10.57;9.15;;;;;;;14.93;100.00;102188.53;5006191;28;20033;-79
2023/09/05 05:40:34;;;;;;;11.48;9.35;;;;;;;14.97;100.00;102193.00;4999742;28;20042;-80
2023/09/05 05:43:02;;;;;;;10.50;9.48;;;;;;;15.02;100.00;102190.34;5001701;28;20045;-79
2023/09/05 05:45:32;;;;;;;10.63;9.48;;;;;;;15.06;100.00;102186.81;5003075;28;20415;-79
2023/09/05 05:47:59;;;;;;;14.73;9.65;;;;;;;15.10;100.00;102185.09;5003832;28;20052;-78
2023/09/05 05:50:26;;;;;;;15.32;9.68;;;;;;;15.14;100.00;102186.88;5003601;28;20045;-80
2023/09/05 05:52:54;;;;;;;13.80;9.27;;;;;;;15.18;100.00;102186.91;5013668;28;20433;-79
2023/09/05 05:55:21;;;;;;;10.43;9.07;;;;;;;15.23;100.00;102178.94;5000591;28;20606;-80
2023/09/05 05:57:49;;;;;;;13.43;9.63;;;;;;;15.30;100.00;102180.78;4999743;28;20045;-80
2023/09/05 06:00:17;;;;;;;14.48;8.77;;;;;;;15.38;100.00;102175.50;4961757;28;20755;-80
2023/09/05 06:02:45;;;;;;;11.25;8.90;;;;;;;15.43;100.00;102168.44;5018319;28;20546;-79
2023/09/05 06:05:12;;;;;;;11.38;7.93;;;;;;;15.50;100.00;102172.00;5005287;28;20128;-78
2023/09/05 06:07:40;;;;;;;10.57;8.90;;;;;;;15.56;100.00;102178.22;5018035;28;20033;-79
2023/09/05 06:10:08;;;;;;;12.90;8.95;;;;;;;15.64;100.00;102183.56;5005767;28;20052;-79
2023/09/05 06:12:35;;;;;;;9.77;8.13;;;;;;;15.71;100.00;102176.53;5003447;28;20133;-78
2023/09/05 06:15:03;;;;;;;10.18;7.95;;;;;;;15.77;100.00;102165.94;4971054;28;20417;-79
2023/09/05 06:17:30;;;;;;;12.70;8.32;;;;;;;15.84;100.00;102169.47;5022631;28;20050;-79
2023/09/05 06:19:58;;;;;;;12.05;8.25;;;;;;;15.90;100.00;102170.38;5022451;28;20080;-78
2023/09/05 06:22:25;;;;;;;10.98;8.13;;;;;;;15.98;100.00;102170.41;5036497;28;20045;-81
2023/09/05 06:24:52;;;;;;;14.50;8.85;;;;;;;16.04;100.00;102172.19;5015643;28;20053;-78
2023/09/05 06:27:20;;;;;;;12.15;8.43;;;;;;;16.09;100.00;102170.44;5010696;28;20049;-79
2023/09/05 06:29:48;;;;;;;12.95;8.15;;;;;;;16.16;100.00;102169.53;4973713;28;20049;-78
2023/09/05 06:32:15;;;;;;;11.93;7.45;;;;;;;16.25;100.00;102166.88;5030585;28;20065;-78
2023/09/05 06:34:42;;;;;;;9.65;8.23;;;;;;;16.36;100.00;102167.78;4995756;28;20060;-78
2023/09/05 06:37:10;;;;;;;8.88;7.10;;;;;;;16.54;100.00;102171.31;5022266;28;20049;-79
2023/09/05 06:39:37;;;;;;;11.55;7.70;;;;;;;16.73;100.00;102170.44;5038499;28;20049;-79
2023/09/05 06:42:08;;;;;;;8.68;7.70;;;;;;;16.93;100.00;102169.53;5036366;28;20053;-79
2023/09/05 06:44:40;;;;;;;8.30;7.30;;;;;;;17.12;100.00;102165.91;5003614;28;20058;-78
2023/09/05 06:47:07;;;;;;;10.15;7.63;;;;;;;17.44;100.00;102172.03;4980420;28;20046;-78
2023/09/05 06:49:35;;;;;;;8.75;6.90;;;;;;;17.96;100.00;102178.88;5023398;28;20033;-78
2023/09/05 06:52:02;;;;;;;6.88;6.05;;;;;;;18.57;100.00;102178.44;5011855;28;20041;-78
2023/09/05 06:54:30;;;;;;;6.35;5.75;;;;;;;19.20;100.00;102179.59;5004681;28;20104;-79
2023/09/05 06:56:58;;;;;;;10.10;6.15;;;;;;;19.58;100.00;102180.91;5023873;28;20589;-79
2023/09/05 06:59:25;;;;;;;6.75;5.72;;;;;;;19.77;100.00;102185.16;5012286;28;20049;-79
2023/09/05 07:01:53;;;;;;;8.55;5.43;;;;;;;19.98;100.00;102188.41;4984343;28;20050;-79
2023/09/05 07:04:20;;;;;;;11.93;5.07;;;;;;;20.11;100.00;102189.13;5027861;28;20052;-80
2023/09/05 07:06:50;;;;;;;10.27;5.88;;;;;;;20.32;100.00;102183.44;5000630;28;21033;-79
2023/09/05 07:09:17;;;;;;;6.77;6.17;;;;;;;20.39;100.00;102190.44;5037234;28;20058;-79
2023/09/05 07:11:44;;;;;;;11.52;5.97;;;;;;;20.32;100.00;102183.44;5037949;28;20892;-78
2023/09/05 07:14:12;;;;;;;6.38;5.03;;;;;;;20.30;100.00;102184.34;5009507;28;20041;-78
2023/09/05 07:16:39;;;;;;;6.97;6.28;;;;;;;20.22;100.00;102196.06;4990627;28;20050;-79
2023/09/05 07:19:06;;;;;;;7.20;6.50;;;;;;;20.14;100.00;102203.34;5011100;28;20057;-79
2023/09/05 07:21:36;;;;;;;6.88;6.05;;;;;;;20.09;100.00;102202.50;4993371;28;20053;-79
2023/09/05 07:24:03;;;;;;;7.88;6.40;;;;;;;20.05;100.00;102201.66;5012509;28;20029;-79
2023/09/05 07:26:30;;;;;;;8.52;5.95;;;;;;;20.08;100.00;102206.13;5029317;28;20505;-78
2023/09/05 07:28:58;;;;;;;7.50;5.13;;;;;;;20.13;100.00;102198.91;5025244;28;20052;-78
2023/09/05 07:31:30;;;;;;;5.88;5.13;;;;;;;20.18;100.00;102204.19;4998854;28;20502;-79
2023/09/05 07:33:58;;;;;;;6.13;5.15;;;;;;;20.24;100.00;102210.34;4987558;28;20052;-80
2023/09/05 07:36:27;;;;;;;8.88;4.90;;;;;;;20.30;100.00;102208.44;5039572;28;20524;-79
2023/09/05 07:38:54;;;;;;;10.98;5.97;;;;;;;20.35;100.00;102206.59;5015403;28;20488;-79
2023/09/05 07:41:22;;;;;;;9.60;5.15;;;;;;;20.40;100.00;102202.06;5027037;28;20394;-79
2023/09/05 07:43:49;;;;;;;6.45;5.07;;;;;;;20.48;100.00;102200.13;5025560;28;20053;-78
2023/09/05 07:46:17;;;;;;;6.40;5.65;;;;;;;20.63;100.00;102197.22;5011006;28;20855;-78
2023/09/05 07:48:46;;;;;;;6.18;5.57;;;;;;;20.72;100.00;102192.59;4981834;28;20042;-78
2023/09/05 07:51:14;;;;;;;8.70;5.55;;;;;;;20.77;100.00;102191.59;5026468;28;20045;-78
2023/09/05 07:53:48;;;;;;;7.18;5.50;;;;;;;20.85;100.00;102191.50;5012863;28;20057;-78
2023/09/05 07:56:16;;;;;;;8.80;6.13;;;;;;;21.02;100.00;102193.84;5028878;28;20053;-78
2023/09/05 07:58:43;;;;;;;7.78;5.07;;;;;;;21.14;100.00;102198.97;4988020;28;20698;-79
2023/09/05 08:01:11;;;;;;;5.88;5.28;;;;;;;21.28;100.00;102208.53;5010039;28;20056;-79
2023/09/05 08:03:38;;;;;;;7.40;5.28;;;;;;;21.26;100.00;102208.56;5010910;28;20062;-79
2023/09/05 08:06:05;;;;;;;8.90;5.03;;;;;;;21.29;100.00;102210.31;4985600;28;20050;-79
2023/09/05 08:08:35;;;;;;;5.90;5.40;;;;;;;21.42;100.00;102209.16;5014192;28;20068;-79
2023/09/05 08:11:03;;;;;;;9.55;6.13;;;;;;;21.57;100.00;102216.91;5019912;28;20665;-79
2023/09/05 08:13:30;;;;;;;7.38;6.05;;;;;;;21.81;100.00;102211.91;5022525;28;20064;-79
2023/09/05 08:15:57;;;;;;;7.97;5.70;;;;;;;22.11;100.00;102213.00;5026034;28;20076;-79
2023/09/05 08:18:25;;;;;;;6.70;5.72;;;;;;;22.37;100.00;102215.09;5032923;28;20045;-78
2023/09/05 08:20:53;;;;;;;6.28;5.53;;;;;;;22.68;100.00;102205.38;4982871;28;20053;-80
2023/09/05 08:23:22;;;;;;;8.88;5.20;;;;;;;22.92;100.00;102203.88;5031285;28;20049;-79
2023/09/05 08:25:51;;;;;;;10.97;5.03;;;;;;;23.03;100.00;102209.88;4991101;28;20060;-78
2023/09/05 08:28:18;;;;;;;8.88;4.80;;;;;;;23.15;100.00;102205.94;4988023;28;20418;-78
2023/09/05 08:30:46;;;;;;;5.93;5.10;;;;;;;23.35;100.00;102210.78;5011140;28;20057;-81
2023/09/05 08:33:13;;;;;;;10.63;6.07;;;;;;;23.63;100.00;102204.56;5013807;28;20081;-78
2023/09/05 08:35:41;;;;;;;10.15;4.93;;;;;;;23.81;100.00;102198.66;5019322;28;20053;-78
2023/09/05 08:38:09;;;;;;;5.35;4.45;;;;;;;23.98;100.00;102192.75;4990205;28;20042;-78
2023/09/05 08:40:36;;;;;;;7.30;5.15;;;;;;;24.10;100.00;102200.44;5011870;28;20061;-79
2023/09/05 08:43:04;;;;;;;10.18;5.25;;;;;;;24.16;100.00;102198.47;5003237;28;20050;-79
2023/09/05 08:45:35;;;;;;;8.20;4.85;;;;;;;24.29;100.00;102195.34;5026375;28;20502;-79
2023/09/05 08:48:03;;;;;;;11.98;5.35;;;;;;;24.36;100.00;102190.59;5006330;28;20817;-78
2023/09/05 08:50:35;;;;;;;6.68;5.20;;;;;;;24.41;100.00;102185.97;5027481;28;20042;-79
2023/09/05 08:53:14;;;;;;;9.20;4.70;;;;;;;24.45;100.00;102184.91;4993394;28;20050;-80
2023/09/05 08:55:43;;;;;;;10.25;3.97;;;;;;;24.60;100.00;102188.94;5016542;28;20050;-80
2023/09/05 08:58:14;;;;;;;8.48;3.53;;;;;;;24.71;100.00;102189.44;5008275;28;20052;-78
2023/09/05 09:00:43;;;;;;;7.50;4.07;;;;;;;24.74;100.00;102192.97;5043230;28;20049;-79
2023/09/05 09:03:11;;;;;;;4.80;3.80;;;;;;;24.65;100.00;102188.75;5003961;28;20050;-79
2023/09/05 09:05:38;;;;;;;4.40;3.60;;;;;;;24.62;100.00;102187.06;5020898;28;20049;-80
2023/09/05 09:08:07;;;;;;;5.68;4.50;;;;;;;24.58;99.62;102189.94;4964374;28;20061;-78
2023/09/05 09:10:34;;;;;;;4.65;3.55;;;;;;;24.48;100.00;102187.50;5015226;28;20412;-78
2023/09/05 09:13:19;;;;;;;6.80;3.58;;;;;;;24.51;100.00;102178.44;5019334;28;20053;-79
2023/09/05 09:15:47;;;;;;;7.45;4.82;;;;;;;24.54;100.00;102183.78;5026596;28;20045;-79
2023/09/05 09:18:20;;;;;;;12.43;7.93;;;;;;;24.41;100.00;102182.41;5020538;28;20497;-79
2023/09/05 09:20:51;;;;;;;21.63;8.13;;;;;;;24.16;100.00;102175.13;5006833;28;20056;-79
2023/09/05 09:23:27;;;;;;;12.93;5.82;;;;;;;23.95;100.00;102176.72;4981807;28;20982;-79
2023/09/05 09:25:55;;;;;;;5.50;4.90;;;;;;;23.83;100.00;102182.47;5020186;28;20041;-79
2023/09/05 09:28:31;;;;;;;6.85;5.88;;;;;;;23.76;100.00;102181.72;5022767;28;20053;-78
2023/09/05 09:31:05;;;;;;;10.85;5.45;;;;;;;23.66;100.00;102180.25;5024146;28;20054;-79
2023/09/05 09:33:33;;;;;;;4.82;4.30;;;;;;;23.57;100.00;102186.78;5009850;28;20052;-79
2023/09/05 09:36:01;;;;;;;9.68;5.78;;;;;;;23.62;100.00;102175.91;5007539;28;20056;-79
2023/09/05 09:38:31;;;;;;;5.97;5.28;;;;;;;23.63;100.00;102178.56;4986405;28;20041;-79
2023/09/05 09:41:02;;;;;;;5.85;5.28;;;;;;;23.67;100.00;102174.84;5023286;28;20049;-78
2023/09/05 09:43:31;;;;;;;10.00;6.60;;;;;;;23.68;100.00;102181.09;5030592;28;20065;-78
2023/09/05 09:46:00;;;;;;;8.02;5.10;;;;;;;23.65;100.00;102184.78;5038572;28;20061;-78
2023/09/05 09:48:29;;;;;;;7.28;5.38;;;;;;;23.68;100.00;102184.66;5021196;28;20038;-79
2023/09/05 09:50:57;;;;;;;8.93;5.95;;;;;;;23.71;100.00;102175.63;5007728;28;20402;-78
2023/09/05 09:53:30;;;;;;;7.70;5.82;;;;;;;23.77;100.00;102175.44;5030683;28;20049;-79
2023/09/05 09:55:59;;;;;;;6.68;5.80;;;;;;;23.73;100.00;102173.75;4979849;28;20045;-78
2023/09/05 09:58:28;;;;;;;6.25;5.47;;;;;;;23.73;100.00;102176.47;5024790;28;20045;-78
2023/09/05 10:00:58;;;;;;;9.63;5.07;;;;;;;23.77;100.00;102174.56;5029214;28;20076;-78
2023/09/05 10:03:25;;;;;;;7.05;4.05;;;;;;;23.81;100.00;102174.44;5041131;28;20144;-79
2023/09/05 10:05:54;;;;;;;8.32;4.28;;;;;;;23.89;100.00;102177.78;5006482;28;20422;-79
2023/09/05 10:08:22;;;;;;;6.15;4.40;;;;;;;23.93;100.00;102171.38;5014257;28;20670;-79
2023/09/05 10:10:51;;;;;;;4.95;4.45;;;;;;;23.92;100.00;102169.59;4994126;28;20539;-78
2023/09/05 10:13:22;;;;;;;7.38;4.38;;;;;;;23.94;100.00;102172.25;4999134;28;20061;-78
2023/09/05 10:15:54;;;;;;;5.75;4.10;;;;;;;23.96;100.00;102170.38;5024875;28;20084;-78
2023/09/05 10:18:22;;;;;;;4.63;3.88;;;;;;;23.96;100.00;102169.50;5014399;28;20053;-79
2023/09/05 10:20:50;;;;;;;5.30;3.70;;;;;;;24.00;100.00;102165.78;5014463;28;20051;-78
2023/09/05 10:23:18;;;;;;;4.90;4.30;;;;;;;23.99;100.00;102166.69;5041660;28;20052;-79
2023/09/05 10:25:47;;;;;;;4.88;2.80;;;;;;;24.02;100.00;102164.78;4981355;28;20054;-80
2023/09/05 10:28:15;;;;;;;5.32;2.60;;;;;;;24.02;100.00;102159.41;5014562;28;20064;-79
2023/09/05 10:30:49;;;;;;;5.80;2.70;;;;;;;24.04;100.00;102152.16;5036519;28;20042;-79
2023/09/05 10:33:38;;;;;;;3.60;2.50;;;;;;;24.13;100.00;102141.09;5009400;28;20037;-79
2023/09/05 10:36:06;;;;;;;3.15;2.45;;;;;;;24.23;100.00;102140.78;4992341;28;20741;-79
2023/09/05 10:38:36;;;;;;;3.10;2.83;;;;;;;24.30;100.00;102148.59;5012557;28;20817;-80
2023/09/05 10:41:03;;;;;;;2.92;2.55;;;;;;;24.29;97.83;102140.56;4993379;28;20056;-78
2023/09/05 10:43:31;;;;;;;2.47;2.05;;;;;;;24.29;97.64;102135.19;4998620;28;20046;-78
2023/09/05 10:46:00;;;;;;;2.38;2.10;;;;;;;24.32;96.58;102130.56;5026591;28;20049;-80
2023/09/05 10:48:35;;;;;;;3.88;2.30;;;;;;;24.38;97.08;102125.91;5023136;28;20045;-80
2023/09/05 10:51:05;;;;;;;4.38;1.88;;;;;;;24.44;96.54;102129.28;5010196;28;20077;-80
2023/09/05 10:53:38;;;;;;;4.20;2.05;;;;;;;24.49;94.98;102116.50;5032304;28;20044;-78
2023/09/05 10:56:26;;;;;;;3.15;1.95;;;;;;;24.56;94.77;102121.75;4998697;28;20037;-80
2023/09/05 10:58:56;;;;;;;1.80;1.70;;;;;;;24.56;92.74;102122.63;5035675;28;20084;-79
2023/09/05 11:01:31;;;;;;;4.07;1.98;;;;;;;24.54;91.89;102116.41;5023415;28;20053;-78
2023/09/05 11:04:07;;;;;;;1.90;1.80;;;;;;;24.61;92.79;102111.66;4998396;28;20057;-78
2023/09/05 11:06:42;;;;;;;1.50;1.40;;;;;;;24.67;90.14;102109.63;5023329;28;20406;-80
2023/09/05 11:09:09;;;;;;;2.00;1.58;;;;;;;24.70;88.55;102109.50;5026105;28;20049;-78
2023/09/05 11:11:37;;;;;;;3.45;1.50;;;;;;;24.73;88.95;102108.53;4997849;28;20049;-78
2023/09/05 11:14:05;;;;;;;1.50;1.40;;;;;;;24.77;88.31;102103.91;5019335;28;20045;-78
2023/09/05 11:16:47;;;;;;;3.33;1.80;;;;;;;24.85;86.85;102112.59;5028965;28;20395;-78
2023/09/05 11:19:38;;;;;;;2.30;1.73;;;;;;;24.96;85.07;102115.78;5029532;28;20049;-79
2023/09/05 11:22:15;;;;;;;2.80;2.03;;;;;;;25.05;85.50;102117.25;5008071;28;20046;-77